Time;durP1;ratioP1;P1;durP2;ratioP2;P2;SDS_P1;SDS_P2;PMS_P1;PMS_P2;Temp;Humidity;BMP_temperature;BMP_pressure;BME280_temperature;BME280_humidity;BME280_pressure;Samples;Min_cycle;Max_cycle;Signal;HPM_P1;HPM_P2
2023/04/13 00:01:31;;;;;;;8.25;2.95;;;;;;;;;;5030933;28;20026;-74
2023/04/13 00:04:01;;;;;;;4.95;2.55;;;;;;;;;;5034158;28;20032;-74
2023/04/13 00:06:28;;;;;;;5.38;2.97;;;;;;;;;;5032243;28;20049;-75
2023/04/13 00:08:54;;;;;;;6.20;2.85;;;;;;;;;;5034670;28;20025;-74
2023/04/13 00:11:20;;;;;;;4.22;2.60;;;;;;;;;;5032975;28;20246;-76
2023/04/13 00:13:46;;;;;;;6.10;2.90;;;;;;;;;;5032743;28;20025;-76
2023/04/13 00:16:15;;;;;;;6.60;3.05;;;;;;;;;;5033269;28;20032;-75
2023/04/13 00:18:41;;;;;;;8.05;3.30;;;;;;;;;;5033200;28;20029;-74
2023/04/13 00:21:07;;;;;;;8.25;2.60;;;;;;;;;;5034733;28;20025;-75
2023/04/13 00:23:34;;;;;;;5.43;3.30;;;;;;;;;;5033377;28;20529;-75
2023/04/13 00:26:00;;;;;;;4.30;2.58;;;;;;;;;;5034065;28;20141;-75
2023/04/13 00:28:27;;;;;;;4.15;2.35;;;;;;;;;;5032804;28;20489;-75
2023/04/13 00:30:52;;;;;;;6.57;2.60;;;;;;;;;;5034177;28;20018;-75
2023/04/13 00:33:18;;;;;;;4.85;2.70;;;;;;;;;;5033603;28;20104;-75
2023/04/13 00:35:43;;;;;;;4.03;2.30;;;;;;;;;;5033386;28;20057;-75
2023/04/13 00:38:10;;;;;;;3.70;2.28;;;;;;;;;;5034196;28;20033;-74
2023/04/13 00:40:36;;;;;;;4.32;2.50;;;;;;;;;;5032609;28;20508;-74
2023/04/13 00:43:04;;;;;;;2.58;2.10;;;;;;;;;;5032839;28;20028;-73
2023/04/13 00:45:37;;;;;;;5.75;2.28;;;;;;;;;;5034150;28;20037;-76
2023/04/13 00:48:04;;;;;;;4.60;1.92;;;;;;;;;;5033856;28;20025;-74
2023/04/13 00:50:32;;;;;;;3.13;1.88;;;;;;;;;;5034472;28;20048;-74
2023/04/13 00:52:59;;;;;;;2.92;2.25;;;;;;;;;;5031667;28;20017;-74
2023/04/13 00:55:26;;;;;;;3.72;1.95;;;;;;;;;;5034130;28;20025;-75
2023/04/13 00:57:52;;;;;;;4.25;2.05;;;;;;;;;;5034028;28;20116;-74
2023/04/13 01:00:18;;;;;;;6.88;2.03;;;;;;;;;;5035012;28;20147;-74
2023/04/13 01:02:43;;;;;;;2.80;1.92;;;;;;;;;;5032869;28;20025;-75
2023/04/13 01:05:15;;;;;;;2.28;1.90;;;;;;;;;;5034602;28;20097;-74
2023/04/13 01:08:19;;;;;;;4.03;2.08;;;;;;;;;;5032277;28;20025;-74
2023/04/13 01:10:50;;;;;;;3.83;2.15;;;;;;;;;;4975421;28;20428;-75
2023/04/13 01:13:29;;;;;;;2.92;2.05;;;;;;;;;;4991022;28;20095;-74
2023/04/13 01:16:02;;;;;;;2.55;1.85;;;;;;;;;;5016550;28;20508;-74
2023/04/13 01:18:30;;;;;;;3.00;1.90;;;;;;;;;;5034283;28;20021;-74
2023/04/13 01:20:58;;;;;;;3.50;1.73;;;;;;;;;;5033891;28;20496;-73
2023/04/13 01:23:38;;;;;;;3.58;1.85;;;;;;;;;;5034168;28;20021;-74
2023/04/13 01:26:05;;;;;;;5.03;1.90;;;;;;;;;;5033324;28;20033;-74
2023/04/13 01:28:32;;;;;;;3.83;2.00;;;;;;;;;;5034369;28;20438;-75
2023/04/13 01:31:00;;;;;;;3.20;2.25;;;;;;;;;;5033435;28;20151;-75
2023/04/13 01:33:29;;;;;;;3.72;2.00;;;;;;;;;;5033245;28;20048;-76
2023/04/13 01:35:56;;;;;;;2.38;1.77;;;;;;;;;;5031735;28;20025;-74
2023/04/13 01:38:26;;;;;;;3.35;1.90;;;;;;;;;;5033350;28;20029;-74
2023/04/13 01:40:51;;;;;;;6.22;2.42;;;;;;;;;;5033518;28;20029;-74
2023/04/13 01:43:19;;;;;;;3.78;1.83;;;;;;;;;;5034021;28;20018;-74
2023/04/13 01:45:51;;;;;;;2.80;2.05;;;;;;;;;;5033013;28;20124;-75
2023/04/13 01:48:33;;;;;;;2.67;1.90;;;;;;;;;;5033995;28;20029;-75
2023/04/13 01:51:18;;;;;;;3.20;2.00;;;;;;;;;;5033449;28;20364;-75
2023/04/13 01:53:52;;;;;;;3.63;1.80;;;;;;;;;;5033120;28;20032;-76
2023/04/13 01:56:18;;;;;;;3.60;2.03;;;;;;;;;;5033432;28;20063;-75
2023/04/13 01:58:48;;;;;;;3.42;2.15;;;;;;;;;;5033945;28;20022;-75
2023/04/13 02:01:14;;;;;;;2.95;2.10;;;;;;;;;;5031633;28;20121;-76
2023/04/13 02:03:42;;;;;;;2.97;2.15;;;;;;;;;;5033063;28;20029;-75
2023/04/13 02:06:08;;;;;;;3.63;1.90;;;;;;;;;;5032034;28;20039;-74
2023/04/13 02:08:35;;;;;;;5.15;3.10;;;;;;;;;;5031906;28;20026;-76
2023/04/13 02:11:02;;;;;;;3.78;2.28;;;;;;;;;;5031359;28;20051;-75
2023/04/13 02:13:29;;;;;;;4.03;1.88;;;;;;;;;;5030815;28;20029;-76
2023/04/13 02:15:55;;;;;;;2.60;2.40;;;;;;;;;;5030814;28;20033;-76
2023/04/13 02:18:22;;;;;;;2.63;2.20;;;;;;;;;;5031238;28;20538;-74
2023/04/13 02:21:10;;;;;;;4.68;2.38;;;;;;;;;;5031165;28;20116;-75
2023/04/13 02:23:38;;;;;;;3.85;2.35;;;;;;;;;;5031101;28;20029;-75
2023/04/13 02:26:09;;;;;;;8.30;2.35;;;;;;;;;;5029471;28;20028;-75
2023/04/13 02:28:35;;;;;;;4.80;3.30;;;;;;;;;;5032823;28;20049;-75
2023/04/13 02:31:04;;;;;;;3.13;2.38;;;;;;;;;;5032551;28;20512;-74
2023/04/13 02:33:30;;;;;;;4.07;2.28;;;;;;;;;;5030710;28;20040;-74
2023/04/13 02:36:01;;;;;;;3.13;2.28;;;;;;;;;;5031314;28;20496;-74
2023/04/13 02:38:27;;;;;;;2.88;2.22;;;;;;;;;;5032346;28;20366;-74
2023/04/13 02:41:02;;;;;;;4.57;2.38;;;;;;;;;;5030649;28;20195;-75
2023/04/13 02:43:28;;;;;;;3.63;1.90;;;;;;;;;;5031996;28;20025;-74
2023/04/13 02:45:54;;;;;;;2.13;1.50;;;;;;;;;;5029728;28;20045;-74
2023/04/13 02:48:20;;;;;;;8.00;2.42;;;;;;;;;;5032284;28;20025;-75
2023/04/13 02:50:46;;;;;;;5.78;2.53;;;;;;;;;;5030555;28;20047;-76
2023/04/13 02:53:16;;;;;;;2.55;2.00;;;;;;;;;;5031833;28;20347;-74
2023/04/13 02:55:42;;;;;;;2.80;2.22;;;;;;;;;;5032252;28;20021;-75
2023/04/13 02:58:08;;;;;;;4.18;2.40;;;;;;;;;;5032085;28;20113;-75
2023/04/13 03:00:33;;;;;;;2.35;1.48;;;;;;;;;;5030917;28;20049;-75
2023/04/13 03:03:02;;;;;;;3.28;1.75;;;;;;;;;;5032482;28;20415;-74
2023/04/13 03:05:30;;;;;;;2.65;2.28;;;;;;;;;;5032376;28;20392;-74
2023/04/13 03:07:56;;;;;;;2.50;1.90;;;;;;;;;;5030730;28;20045;-75
2023/04/13 03:10:22;;;;;;;2.47;2.15;;;;;;;;;;5032507;28;20033;-74
2023/04/13 03:12:48;;;;;;;5.88;2.38;;;;;;;;;;5030653;28;20084;-75
2023/04/13 03:15:13;;;;;;;4.13;1.98;;;;;;;;;;5030572;28;20029;-74
2023/04/13 03:17:40;;;;;;;4.32;2.08;;;;;;;;;;5031024;28;20032;-75
2023/04/13 03:20:15;;;;;;;3.92;2.47;;;;;;;;;;5030656;28;20029;-74
2023/04/13 03:22:43;;;;;;;2.28;1.77;;;;;;;;;;5031387;28;20018;-76
2023/04/13 03:25:09;;;;;;;2.92;1.90;;;;;;;;;;5029344;28;20029;-74
2023/04/13 03:27:35;;;;;;;4.32;1.90;;;;;;;;;;5031225;28;20105;-74
2023/04/13 03:30:05;;;;;;;3.35;1.75;;;;;;;;;;5029009;28;20033;-74
2023/04/13 03:32:31;;;;;;;3.50;2.00;;;;;;;;;;5029682;28;20032;-74
2023/04/13 03:34:56;;;;;;;2.63;1.73;;;;;;;;;;5031355;28;20030;-74
2023/04/13 03:37:22;;;;;;;2.67;2.20;;;;;;;;;;5030672;28;20068;-74
2023/04/13 03:39:48;;;;;;;3.78;2.22;;;;;;;;;;5030141;28;20109;-75
2023/04/13 03:42:13;;;;;;;13.20;3.13;;;;;;;;;;5031398;28;20022;-75
2023/04/13 03:44:39;;;;;;;3.17;1.90;;;;;;;;;;5031148;28;20029;-73
2023/04/13 03:47:04;;;;;;;2.33;1.55;;;;;;;;;;5030172;28;20064;-75
2023/04/13 03:49:30;;;;;;;4.00;2.50;;;;;;;;;;5031301;28;20366;-75
2023/04/13 03:51:57;;;;;;;3.67;2.15;;;;;;;;;;5030353;28;20033;-74
2023/04/13 03:54:23;;;;;;;3.55;2.38;;;;;;;;;;5030248;28;20063;-74
2023/04/13 03:56:50;;;;;;;4.65;2.05;;;;;;;;;;5031708;28;20025;-75
2023/04/13 03:59:15;;;;;;;3.50;2.10;;;;;;;;;;5035460;28;20041;-76
2023/04/13 04:01:41;;;;;;;3.15;2.22;;;;;;;;;;5030365;28;20030;-75
2023/04/13 04:04:06;;;;;;;3.15;1.90;;;;;;;;;;5031195;28;20093;-74
2023/04/13 04:06:32;;;;;;;6.72;2.30;;;;;;;;;;5029661;28;20053;-75
2023/04/13 04:08:57;;;;;;;3.13;2.03;;;;;;;;;;5029349;28;20064;-75
2023/04/13 04:11:23;;;;;;;3.45;2.45;;;;;;;;;;5030462;28;20537;-75
2023/04/13 04:13:48;;;;;;;3.05;1.98;;;;;;;;;;5029580;28;20025;-75
2023/04/13 04:16:15;;;;;;;7.05;2.17;;;;;;;;;;5030807;28;20025;-75
2023/04/13 04:18:41;;;;;;;5.82;2.20;;;;;;;;;;5030250;28;20021;-75
2023/04/13 04:21:07;;;;;;;4.53;2.00;;;;;;;;;;5030131;28;20422;-75
2023/04/13 04:23:33;;;;;;;2.70;1.80;;;;;;;;;;5029579;28;20025;-75
2023/04/13 04:26:01;;;;;;;4.85;2.00;;;;;;;;;;5030104;28;20024;-75
2023/04/13 04:28:29;;;;;;;2.97;1.38;;;;;;;;;;5031230;28;20029;-75
2023/04/13 04:30:55;;;;;;;9.85;2.70;;;;;;;;;;5029768;28;20017;-75
2023/04/13 04:33:23;;;;;;;2.67;1.67;;;;;;;;;;5031627;28;20103;-74
2023/04/13 04:35:50;;;;;;;3.60;1.35;;;;;;;;;;5032263;28;20122;-74
2023/04/13 04:38:20;;;;;;;1.83;1.30;;;;;;;;;;5030144;28;20041;-75
2023/04/13 04:40:46;;;;;;;1.70;1.27;;;;;;;;;;5029563;28;20105;-75
2023/04/13 04:43:13;;;;;;;3.50;1.48;;;;;;;;;;5030708;28;20049;-75
2023/04/13 04:45:42;;;;;;;1.50;1.40;;;;;;;;;;5028906;28;20059;-75
2023/04/13 04:48:14;;;;;;;4.57;1.80;;;;;;;;;;5029368;28;20025;-75
2023/04/13 04:50:43;;;;;;;4.43;1.30;;;;;;;;;;5032746;28;20033;-75
2023/04/13 04:53:09;;;;;;;2.15;1.10;;;;;;;;;;5032812;28;20056;-76
2023/04/13 04:55:35;;;;;;;1.48;1.35;;;;;;;;;;5032546;28;20476;-74
2023/04/13 04:58:01;;;;;;;1.67;1.08;;;;;;;;;;5033377;28;20057;-75
2023/04/13 05:00:29;;;;;;;0.60;0.60;;;;;;;;;;5033879;28;20039;-75
2023/04/13 05:02:56;;;;;;;15.65;1.55;;;;;;;;;;5034100;28;20100;-74
2023/04/13 05:05:22;;;;;;;1.88;0.60;;;;;;;;;;5032617;28;20385;-75
2023/04/13 05:07:48;;;;;;;1.90;1.10;;;;;;;;;;5033670;28;20029;-75
2023/04/13 05:10:14;;;;;;;1.20;0.95;;;;;;;;;;5031990;28;20025;-74
2023/04/13 05:12:40;;;;;;;4.85;1.00;;;;;;;;;;5032542;28;20449;-75
2023/04/13 05:15:06;;;;;;;1.15;0.50;;;;;;;;;;5031420;28;20116;-74
2023/04/13 05:17:31;;;;;;;3.75;0.90;;;;;;;;;;5033146;28;20364;-74
2023/04/13 05:19:57;;;;;;;1.77;0.82;;;;;;;;;;5033137;28;20033;-75
2023/04/13 05:22:22;;;;;;;1.58;0.80;;;;;;;;;;5033223;28;20082;-76
2023/04/13 05:24:48;;;;;;;5.00;1.38;;;;;;;;;;5031548;28;20364;-74
2023/04/13 05:27:14;;;;;;;1.10;0.70;;;;;;;;;;5036771;28;20025;-75
2023/04/13 05:29:40;;;;;;;2.22;0.90;;;;;;;;;;5042264;28;20025;-75
2023/04/13 05:32:06;;;;;;;1.23;0.70;;;;;;;;;;5031457;28;20026;-76
2023/04/13 05:34:32;;;;;;;4.18;0.80;;;;;;;;;;5026426;28;20029;-75
2023/04/13 05:36:58;;;;;;;2.92;0.85;;;;;;;;;;5037626;28;20033;-75
2023/04/13 05:39:24;;;;;;;1.42;0.80;;;;;;;;;;5036950;28;20033;-76
2023/04/13 05:41:50;;;;;;;0.50;0.50;;;;;;;;;;5014399;28;20029;-77
2023/04/13 05:44:16;;;;;;;1.13;0.70;;;;;;;;;;5051550;28;20056;-75
2023/04/13 05:46:42;;;;;;;2.30;0.50;;;;;;;;;;5031312;28;20049;-75
2023/04/13 05:49:08;;;;;;;0.43;0.40;;;;;;;;;;5034261;28;20125;-76
2023/04/13 05:51:34;;;;;;;2.80;0.95;;;;;;;;;;5035960;28;20021;-76
2023/04/13 05:54:00;;;;;;;2.83;1.67;;;;;;;;;;5024130;28;20036;-76
2023/04/13 05:56:28;;;;;;;3.25;0.75;;;;;;;;;;5025524;28;20464;-75
2023/04/13 05:58:55;;;;;;;4.05;0.98;;;;;;;;;;5025256;28;20114;-75
2023/04/13 06:01:22;;;;;;;4.22;0.90;;;;;;;;;;5034511;28;20059;-76
2023/04/13 06:03:48;;;;;;;3.80;1.67;;;;;;;;;;5038502;28;20270;-76
2023/04/13 06:06:16;;;;;;;1.23;0.68;;;;;;;;;;5039363;28;20116;-75
2023/04/13 06:08:42;;;;;;;2.53;0.90;;;;;;;;;;5034359;28;20490;-75
2023/04/13 06:11:08;;;;;;;2.00;0.63;;;;;;;;;;5044542;28;20021;-76
2023/04/13 06:13:34;;;;;;;2.28;1.17;;;;;;;;;;5037327;28;20477;-75
2023/04/13 06:15:59;;;;;;;2.05;0.57;;;;;;;;;;5037230;28;20031;-74
2023/04/13 06:18:25;;;;;;;0.90;0.50;;;;;;;;;;5035953;28;20373;-75
2023/04/13 06:20:52;;;;;;;1.35;0.73;;;;;;;;;;5033576;28;20090;-75
2023/04/13 06:23:17;;;;;;;2.65;0.68;;;;;;;;;;5036564;28;20485;-76
2023/04/13 06:25:44;;;;;;;3.17;0.50;;;;;;;;;;5036842;28;20064;-76
2023/04/13 06:28:10;;;;;;;4.38;1.05;;;;;;;;;;5027428;28;20331;-75
2023/04/13 06:30:36;;;;;;;2.78;0.77;;;;;;;;;;5033139;28;20036;-77
2023/04/13 06:33:03;;;;;;;16.90;4.47;;;;;;;;;;5028508;28;20029;-76
2023/04/13 06:35:29;;;;;;;1.60;0.80;;;;;;;;;;5053769;28;20025;-76
2023/04/13 06:37:58;;;;;;;1.73;0.88;;;;;;;;;;5038218;28;20025;-77
2023/04/13 06:40:24;;;;;;;2.90;0.90;;;;;;;;;;5032702;28;20037;-75
2023/04/13 06:42:50;;;;;;;1.13;0.85;;;;;;;;;;5032557;28;20196;-78
2023/04/13 06:45:16;;;;;;;5.60;1.08;;;;;;;;;;5037088;28;20481;-76
2023/04/13 06:47:42;;;;;;;5.97;1.15;;;;;;;;;;5032047;28;20115;-76
2023/04/13 06:50:10;;;;;;;4.88;1.25;;;;;;;;;;5032469;28;20028;-75
2023/04/13 06:52:36;;;;;;;3.17;0.75;;;;;;;;;;5034518;28;20051;-75
2023/04/13 06:55:03;;;;;;;0.75;0.63;;;;;;;;;;5028251;28;20044;-78
2023/04/13 06:57:29;;;;;;;7.60;1.10;;;;;;;;;;5037625;28;20039;-77
2023/04/13 06:59:55;;;;;;;1.77;1.00;;;;;;;;;;5031603;28;20435;-76
2023/04/13 07:02:21;;;;;;;1.58;0.85;;;;;;;;;;5036196;28;20123;-77
2023/04/13 07:04:46;;;;;;;1.05;0.50;;;;;;;;;;5032183;28;20033;-77
2023/04/13 07:07:12;;;;;;;5.40;0.80;;;;;;;;;;5032496;28;20072;-77
2023/04/13 07:09:37;;;;;;;1.10;0.70;;;;;;;;;;5036698;28;20048;-76
2023/04/13 07:12:04;;;;;;;1.65;0.68;;;;;;;;;;5029014;28;20033;-77
2023/04/13 07:14:37;;;;;;;6.03;1.75;;;;;;;;;;5027833;28;20035;-75
2023/04/13 07:17:03;;;;;;;1.17;0.73;;;;;;;;;;5036355;28;20107;-76
2023/04/13 07:19:30;;;;;;;1.20;1.00;;;;;;;;;;5027985;28;20043;-77
2023/04/13 07:21:58;;;;;;;1.27;0.70;;;;;;;;;;5037152;28;20453;-75
2023/04/13 07:24:25;;;;;;;2.35;1.00;;;;;;;;;;5030652;28;20037;-75
2023/04/13 07:26:57;;;;;;;5.05;1.13;;;;;;;;;;5026758;28;20039;-77
2023/04/13 07:29:27;;;;;;;1.38;1.00;;;;;;;;;;5016092;28;20539;-76
2023/04/13 07:31:59;;;;;;;7.65;1.40;;;;;;;;;;5047927;28;20033;-76
2023/04/13 07:34:25;;;;;;;5.60;1.52;;;;;;;;;;5018343;28;20508;-76
2023/04/13 07:36:51;;;;;;;3.85;1.50;;;;;;;;;;5028813;28;20083;-76
2023/04/13 07:39:17;;;;;;;5.45;1.35;;;;;;;;;;5028767;28;20588;-77
2023/04/13 07:41:45;;;;;;;4.32;1.02;;;;;;;;;;5033056;28;20031;-76
2023/04/13 07:44:16;;;;;;;1.60;0.88;;;;;;;;;;5031933;28;20074;-78
2023/04/13 07:46:43;;;;;;;3.30;0.80;;;;;;;;;;5023902;28;20063;-76
2023/04/13 07:49:08;;;;;;;1.65;1.02;;;;;;;;;;5033268;28;20577;-76
2023/04/13 07:51:40;;;;;;;2.28;0.93;;;;;;;;;;5023578;28;20026;-76
2023/04/13 07:54:06;;;;;;;;;;;;;;;;;;5026884;28;20044;-77
2023/04/13 07:56:31;;;;;;;1.27;0.55;;;;;;;;;;5026166;28;19916;-76
2023/04/13 07:58:57;;;;;;;8.73;0.95;;;;;;;;;;5044124;28;20033;-76
2023/04/13 08:01:23;;;;;;;1.10;1.00;;;;;;;;;;5029238;28;20038;-77
2023/04/13 08:03:49;;;;;;;4.05;1.00;;;;;;;;;;5031356;28;20035;-76
2023/04/13 08:06:15;;;;;;;4.88;1.45;;;;;;;;;;5026727;28;20037;-76
2023/04/13 08:08:42;;;;;;;1.55;0.98;;;;;;;;;;5036911;28;20029;-77
2023/04/13 08:11:08;;;;;;;1.85;0.82;;;;;;;;;;5033578;28;20047;-77
2023/04/13 08:13:34;;;;;;;5.07;1.20;;;;;;;;;;5028663;28;20095;-77
2023/04/13 08:16:00;;;;;;;1.88;0.85;;;;;;;;;;5034078;28;20551;-77
2023/04/13 08:18:26;;;;;;;1.48;0.90;;;;;;;;;;5028021;28;20507;-77
2023/04/13 08:20:55;;;;;;;0.70;0.70;;;;;;;;;;5016797;28;20029;-76
2023/04/13 08:23:21;;;;;;;1.95;0.80;;;;;;;;;;5031339;28;20779;-75
2023/04/13 08:25:47;;;;;;;7.10;1.40;;;;;;;;;;5037650;28;20369;-76
2023/04/13 08:28:13;;;;;;;1.10;0.98;;;;;;;;;;5034775;28;20060;-77
2023/04/13 08:30:39;;;;;;;0.95;0.73;;;;;;;;;;5033330;28;20033;-76
2023/04/13 08:33:05;;;;;;;3.17;0.88;;;;;;;;;;5030769;28;20512;-75
2023/04/13 08:35:31;;;;;;;1.77;0.70;;;;;;;;;;5036840;28;20033;-76
2023/04/13 08:37:57;;;;;;;1.67;0.82;;;;;;;;;;5036221;28;20040;-76
2023/04/13 08:40:22;;;;;;;4.88;2.90;;;;;;;;;;5046836;28;20029;-76
2023/04/13 08:42:48;;;;;;;4.00;1.10;;;;;;;;;;5035505;28;20029;-77
2023/04/13 08:45:15;;;;;;;4.93;1.40;;;;;;;;;;5033682;28;20055;-76
2023/04/13 08:47:41;;;;;;;1.58;0.80;;;;;;;;;;5032342;28;20656;-77
2023/04/13 08:50:08;;;;;;;0.88;0.75;;;;;;;;;;5035315;28;20036;-77
2023/04/13 08:52:35;;;;;;;4.78;1.00;;;;;;;;;;5033928;28;20095;-76
2023/04/13 08:55:03;;;;;;;1.25;0.82;;;;;;;;;;5030187;28;20067;-77
2023/04/13 08:57:30;;;;;;;4.18;1.00;;;;;;;;;;5030339;28;20033;-76
2023/04/13 08:59:57;;;;;;;2.70;1.15;;;;;;;;;;5037447;28;20480;-77
2023/04/13 09:02:27;;;;;;;8.38;0.90;;;;;;;;;;5035188;28;20028;-77
2023/04/13 09:04:54;;;;;;;7.97;1.58;;;;;;;;;;5043915;28;20033;-75
2023/04/13 09:07:26;;;;;;;6.03;0.90;;;;;;;;;;5033422;28;20029;-77
2023/04/13 09:09:57;;;;;;;2.13;1.02;;;;;;;;;;5030997;28;20045;-76
2023/04/13 09:12:23;;;;;;;1.55;0.93;;;;;;;;;;5035297;28;20393;-76
2023/04/13 09:14:49;;;;;;;0.85;0.73;;;;;;;;;;5031671;28;20039;-78
2023/04/13 09:17:29;;;;;;;2.35;0.88;;;;;;;;;;5035306;28;20089;-76
2023/04/13 09:19:56;;;;;;;2.80;1.00;;;;;;;;;;5029422;28;20076;-77
2023/04/13 09:22:38;;;;;;;1.45;0.82;;;;;;;;;;5031206;28;20041;-76
2023/04/13 09:25:30;;;;;;;8.18;1.00;;;;;;;;;;5028653;28;20025;-77
2023/04/13 09:27:56;;;;;;;1.98;0.50;;;;;;;;;;5030946;28;20044;-76
2023/04/13 09:30:26;;;;;;;2.70;0.75;;;;;;;;;;5030088;28;20037;-76
2023/04/13 09:33:03;;;;;;;1.88;0.70;;;;;;;;;;5025971;28;20116;-76
2023/04/13 09:35:30;;;;;;;2.30;0.85;;;;;;;;;;5033653;28;20021;-76
2023/04/13 09:37:55;;;;;;;8.02;1.08;;;;;;;;;;5029855;28;20151;-77
2023/04/13 09:40:21;;;;;;;2.60;0.82;;;;;;;;;;5030629;28;20743;-77
2023/04/13 09:42:59;;;;;;;4.85;0.85;;;;;;;;;;5038249;28;20022;-75
2023/04/13 09:45:36;;;;;;;2.15;0.60;;;;;;;;;;5030434;28;20068;-76
2023/04/13 09:48:15;;;;;;;4.03;1.00;;;;;;;;;;5033477;28;20063;-76
2023/04/13 09:50:41;;;;;;;3.40;1.50;;;;;;;;;;5042499;28;20037;-75
2023/04/13 09:53:12;;;;;;;3.92;0.68;;;;;;;;;;5031313;28;20745;-76
2023/04/13 09:55:39;;;;;;;3.60;0.80;;;;;;;;;;5032305;28;20035;-78
2023/04/13 09:58:12;;;;;;;1.40;0.80;;;;;;;;;;5031015;28;20400;-78
2023/04/13 10:00:41;;;;;;;8.18;1.85;;;;;;;;;;5043950;28;20461;-76
2023/04/13 10:03:11;;;;;;;1.38;0.63;;;;;;;;;;5027248;28;20025;-75
2023/04/13 10:05:39;;;;;;;3.90;0.95;;;;;;;;;;5032000;28;20116;-75
2023/04/13 10:08:05;;;;;;;3.28;0.82;;;;;;;;;;5026625;28;20048;-76
2023/04/13 10:10:35;;;;;;;2.33;0.80;;;;;;;;;;5048356;28;20033;-76
2023/04/13 10:13:32;;;;;;;5.70;1.05;;;;;;;;;;5024972;28;20099;-75
2023/04/13 10:16:10;;;;;;;3.15;0.70;;;;;;;;;;5031407;28;20042;-76
2023/04/13 10:18:51;;;;;;;2.08;0.68;;;;;;;;;;5037931;28;20124;-76
2023/04/13 10:21:19;;;;;;;2.83;1.13;;;;;;;;;;5051553;28;20072;-76
2023/04/13 10:23:45;;;;;;;2.55;0.50;;;;;;;;;;5034758;28;20062;-76
2023/04/13 10:26:12;;;;;;;2.00;0.70;;;;;;;;;;5031647;28;20033;-79
2023/04/13 10:28:42;;;;;;;1.90;0.52;;;;;;;;;;5015157;28;20501;-76
2023/04/13 10:31:14;;;;;;;1.38;0.75;;;;;;;;;;5029815;28;20492;-77
2023/04/13 10:33:48;;;;;;;3.60;0.70;;;;;;;;;;5028573;28;20033;-75
2023/04/13 10:36:14;;;;;;;2.53;0.90;;;;;;;;;;5026827;28;20128;-77
2023/04/13 10:38:50;;;;;;;3.50;0.90;;;;;;;;;;5037600;28;20124;-77
2023/04/13 10:41:23;;;;;;;3.30;0.90;;;;;;;;;;5025898;28;20025;-76
2023/04/13 10:44:08;;;;;;;2.45;1.00;;;;;;;;;;5039457;28;20400;-77
2023/04/13 10:46:40;;;;;;;2.80;0.93;;;;;;;;;;5031137;28;20049;-78
2023/04/13 10:49:08;;;;;;;3.35;0.77;;;;;;;;;;5033258;28;20040;-75
2023/04/13 10:51:45;;;;;;;2.20;0.52;;;;;;;;;;5037055;28;20030;-77
2023/04/13 10:54:12;;;;;;;3.33;0.70;;;;;;;;;;5009365;28;20039;-77
2023/04/13 10:56:39;;;;;;;1.73;0.85;;;;;;;;;;5037572;28;20086;-77
2023/04/13 10:59:05;;;;;;;1.95;0.68;;;;;;;;;;5039477;28;20125;-75
2023/04/13 11:01:32;;;;;;;2.30;1.08;;;;;;;;;;5036547;28;20080;-77
2023/04/13 11:04:05;;;;;;;3.10;1.27;;;;;;;;;;5034854;28;20033;-77
2023/04/13 11:06:38;;;;;;;4.85;0.85;;;;;;;;;;5035816;28;20025;-76
2023/04/13 11:09:05;;;;;;;4.88;0.80;;;;;;;;;;5034563;28;20037;-77
2023/04/13 11:11:32;;;;;;;1.42;0.60;;;;;;;;;;5033080;28;20033;-77
2023/04/13 11:13:58;;;;;;;3.95;2.08;;;;;;;;;;5034288;28;20111;-76
2023/04/13 11:16:24;;;;;;;3.28;0.90;;;;;;;;;;5034559;28;20135;-78
2023/04/13 11:19:04;;;;;;;0.85;0.43;;;;;;;;;;5032712;28;20030;-79
2023/04/13 11:21:30;;;;;;;3.10;0.60;;;;;;;;;;5027650;28;20021;-75
2023/04/13 11:24:01;;;;;;;1.98;0.60;;;;;;;;;;5031433;28;20424;-76
2023/04/13 11:26:36;;;;;;;1.33;0.60;;;;;;;;;;5030205;28;20060;-76
2023/04/13 11:29:17;;;;;;;1.73;0.63;;;;;;;;;;5035190;28;20056;-77
2023/04/13 11:31:43;;;;;;;3.13;0.60;;;;;;;;;;5033053;28;20043;-76
2023/04/13 11:34:12;;;;;;;3.30;0.70;;;;;;;;;;5032458;28;20132;-77
2023/04/13 11:36:39;;;;;;;3.13;0.68;;;;;;;;;;5030934;28;20028;-75
2023/04/13 11:39:09;;;;;;;2.67;0.80;;;;;;;;;;5031771;28;20115;-76
2023/04/13 11:41:43;;;;;;;2.75;1.13;;;;;;;;;;5034788;28;20424;-76
2023/04/13 11:44:12;;;;;;;2.47;0.80;;;;;;;;;;5033078;28;20028;-77
2023/04/13 11:46:38;;;;;;;4.40;0.70;;;;;;;;;;5032085;28;20046;-76
2023/04/13 11:49:04;;;;;;;3.08;0.80;;;;;;;;;;5031040;28;20039;-76
2023/04/13 11:51:33;;;;;;;2.03;0.73;;;;;;;;;;5032117;28;20025;-77
2023/04/13 11:54:01;;;;;;;0.50;0.50;;;;;;;;;;5038275;28;20809;-76
2023/04/13 11:56:27;;;;;;;6.85;0.75;;;;;;;;;;5018584;28;20143;-78
2023/04/13 11:58:53;;;;;;;3.60;0.50;;;;;;;;;;5038539;28;20044;-76
2023/04/13 12:01:23;;;;;;;0.65;0.43;;;;;;;;;;5033511;28;20024;-76
2023/04/13 12:03:48;;;;;;;1.23;0.70;;;;;;;;;;5046187;28;20025;-77
2023/04/13 12:06:15;;;;;;;1.17;0.68;;;;;;;;;;5041462;28;20033;-76
2023/04/13 12:08:42;;;;;;;2.30;0.68;;;;;;;;;;5040303;28;20445;-77
2023/04/13 12:11:09;;;;;;;2.17;0.70;;;;;;;;;;5037506;28;20037;-76
2023/04/13 12:13:52;;;;;;;3.97;0.77;;;;;;;;;;5040998;28;20740;-76
2023/04/13 12:16:31;;;;;;;2.00;0.60;;;;;;;;;;5038867;28;20156;-76
2023/04/13 12:19:03;;;;;;;0.70;0.43;;;;;;;;;;5039557;28;20028;-76
2023/04/13 12:21:54;;;;;;;2.00;0.63;;;;;;;;;;5036693;28;20036;-77
2023/04/13 12:24:36;;;;;;;2.00;0.63;;;;;;;;;;5038454;28;20144;-77
2023/04/13 12:27:03;;;;;;;4.32;0.88;;;;;;;;;;5037432;28;20454;-76
2023/04/13 12:29:29;;;;;;;1.25;0.50;;;;;;;;;;5039446;28;20378;-76
2023/04/13 12:32:03;;;;;;;4.78;0.80;;;;;;;;;;5042042;28;20157;-75
2023/04/13 12:34:29;;;;;;;1.35;0.50;;;;;;;;;;5034723;28;20520;-76
2023/04/13 12:37:11;;;;;;;3.88;0.85;;;;;;;;;;5040895;28;20075;-76
2023/04/13 12:39:38;;;;;;;5.80;1.50;;;;;;;;;;5042110;28;20029;-77
2023/04/13 12:42:04;;;;;;;3.95;0.90;;;;;;;;;;5032778;28;20098;-76
2023/04/13 12:44:30;;;;;;;4.75;0.75;;;;;;;;;;5037363;28;20056;-76
2023/04/13 12:46:56;;;;;;;3.00;1.00;;;;;;;;;;5043618;28;20429;-75
2023/04/13 12:49:23;;;;;;;3.03;0.88;;;;;;;;;;5040866;28;20029;-76
2023/04/13 12:51:49;;;;;;;2.95;1.10;;;;;;;;;;5044585;28;20029;-76
2023/04/13 12:54:16;;;;;;;1.85;0.88;;;;;;;;;;5039069;28;20044;-77
2023/04/13 12:56:42;;;;;;;1.48;0.70;;;;;;;;;;5041105;28;20115;-77
2023/04/13 12:59:07;;;;;;;1.58;0.63;;;;;;;;;;5043553;28;20552;-77
2023/04/13 13:01:36;;;;;;;1.35;0.85;;;;;;;;;;5034781;28;20025;-77
2023/04/13 13:04:05;;;;;;;3.10;0.82;;;;;;;;;;5045200;28;20036;-78
2023/04/13 13:06:32;;;;;;;1.63;0.70;;;;;;;;;;5043117;28;20060;-75
2023/04/13 13:09:01;;;;;;;2.35;0.90;;;;;;;;;;5035110;28;20029;-76
2023/04/13 13:11:27;;;;;;;1.38;0.40;;;;;;;;;;5038893;28;20044;-76
2023/04/13 13:13:52;;;;;;;1.67;0.63;;;;;;;;;;5038285;28;20532;-77
2023/04/13 13:16:18;;;;;;;3.92;0.82;;;;;;;;;;5044609;28;20029;-76
2023/04/13 13:18:44;;;;;;;3.83;0.70;;;;;;;;;;5039839;28;20025;-78
2023/04/13 13:21:10;;;;;;;2.72;0.77;;;;;;;;;;5044905;28;20029;-77
2023/04/13 13:23:36;;;;;;;2.28;0.80;;;;;;;;;;5037061;28;20033;-76
2023/04/13 13:26:02;;;;;;;1.88;0.65;;;;;;;;;;5039568;28;20120;-77
2023/04/13 13:28:27;;;;;;;3.95;1.60;;;;;;;;;;5036597;28;20036;-76
2023/04/13 13:30:53;;;;;;;4.15;0.95;;;;;;;;;;5040716;28;20041;-76
2023/04/13 13:33:18;;;;;;;4.60;1.23;;;;;;;;;;5036813;28;20033;-75
2023/04/13 13:35:44;;;;;;;5.85;0.90;;;;;;;;;;5040829;28;20028;-77
2023/04/13 13:38:09;;;;;;;7.65;2.92;;;;;;;;;;5035473;28;20040;-77
2023/04/13 13:40:35;;;;;;;3.30;0.85;;;;;;;;;;5028546;28;20429;-77
2023/04/13 13:43:00;;;;;;;2.15;0.75;;;;;;;;;;5036282;28;20025;-76
2023/04/13 13:45:26;;;;;;;5.10;1.30;;;;;;;;;;5044955;28;20028;-78
2023/04/13 13:47:53;;;;;;;3.78;1.42;;;;;;;;;;5045694;28;20424;-76
2023/04/13 13:50:20;;;;;;;9.20;2.35;;;;;;;;;;5030423;28;20500;-76
2023/04/13 13:52:47;;;;;;;2.65;1.27;;;;;;;;;;5035026;28;20028;-74
2023/04/13 13:55:12;;;;;;;5.85;2.08;;;;;;;;;;5021737;28;20091;-76
2023/04/13 13:57:38;;;;;;;5.70;2.30;;;;;;;;;;5031832;28;20451;-76
2023/04/13 14:00:26;;;;;;;3.35;1.30;;;;;;;;;;5037404;28;20093;-76
2023/04/13 14:02:51;;;;;;;7.38;2.83;;;;;;;;;;5034859;28;20043;-76
2023/04/13 14:05:17;;;;;;;10.65;2.97;;;;;;;;;;5056264;28;20093;-76
2023/04/13 14:07:44;;;;;;;7.65;2.25;;;;;;;;;;5037820;28;20204;-78
2023/04/13 14:10:11;;;;;;;3.25;1.38;;;;;;;;;;5036916;28;20037;-78
2023/04/13 14:12:39;;;;;;;7.20;1.90;;;;;;;;;;5037083;28;20040;-78
2023/04/13 14:15:09;;;;;;;8.88;2.38;;;;;;;;;;5027603;28;20030;-76
2023/04/13 14:17:35;;;;;;;6.55;1.65;;;;;;;;;;5035727;28;20108;-77
2023/04/13 14:20:07;;;;;;;3.60;1.10;;;;;;;;;;5043768;28;20116;-77
2023/04/13 14:22:33;;;;;;;4.85;1.13;;;;;;;;;;5048693;28;20503;-78
2023/04/13 14:24:59;;;;;;;1.63;0.88;;;;;;;;;;5037267;28;20025;-77
2023/04/13 14:27:26;;;;;;;1.77;0.98;;;;;;;;;;5037777;28;20039;-76
2023/04/13 14:29:52;;;;;;;3.15;0.93;;;;;;;;;;5041865;28;20025;-77
2023/04/13 14:32:18;;;;;;;3.10;1.67;;;;;;;;;;5024669;28;20037;-76
2023/04/13 14:34:44;;;;;;;6.20;1.73;;;;;;;;;;5034294;28;20033;-76
2023/04/13 14:37:12;;;;;;;3.17;1.42;;;;;;;;;;5039423;28;20107;-77
2023/04/13 14:39:38;;;;;;;2.80;1.10;;;;;;;;;;5046724;28;20515;-76
2023/04/13 14:42:03;;;;;;;2.35;1.08;;;;;;;;;;5038137;28;20061;-77
2023/04/13 14:44:30;;;;;;;6.25;1.40;;;;;;;;;;5041113;28;20523;-77
2023/04/13 14:46:55;;;;;;;6.03;2.13;;;;;;;;;;5051842;28;20041;-76
2023/04/13 14:49:21;;;;;;;3.85;1.25;;;;;;;;;;5042212;28;20036;-76